createdAt,value
2018-07-27T00:04:08.798Z,26.90
2018-07-27T00:06:37.805Z,26.80
2018-07-27T00:09:09.689Z,26.80
2018-07-27T00:11:38.661Z,26.80
2018-07-27T00:14:07.937Z,26.70
2018-07-27T00:16:36.953Z,26.70
2018-07-27T00:19:06.204Z,26.60
2018-07-27T00:21:35.613Z,26.60
2018-07-27T00:24:04.657Z,26.50
2018-07-27T00:26:33.685Z,26.50
2018-07-27T00:29:02.689Z,26.40
2018-07-27T00:31:31.697Z,26.40
2018-07-27T00:34:00.698Z,26.30
2018-07-27T00:36:29.733Z,26.30
2018-07-27T00:38:58.717Z,26.20
2018-07-27T00:41:27.725Z,26.20
2018-07-27T00:43:56.759Z,26.10
2018-07-27T00:46:25.764Z,26.10
2018-07-27T00:48:54.775Z,26.10
2018-07-27T00:51:23.749Z,26.00
2018-07-27T00:53:52.757Z,26.00
2018-07-27T00:56:21.762Z,25.90
2018-07-27T00:58:50.837Z,25.90
2018-07-27T01:01:19.867Z,25.90
2018-07-27T01:03:49.309Z,25.80
2018-07-27T01:06:18.338Z,25.70
2018-07-27T01:08:47.325Z,25.70
2018-07-27T01:11:16.323Z,25.60
2018-07-27T01:13:45.293Z,25.60
2018-07-27T01:16:14.372Z,25.60
2018-07-27T01:18:43.333Z,25.60
2018-07-27T01:21:12.315Z,25.50
2018-07-27T01:23:41.414Z,25.50
2018-07-27T01:26:10.439Z,25.40
2018-07-27T01:28:39.448Z,25.40
2018-07-27T01:31:08.459Z,25.30
2018-07-27T01:33:37.549Z,25.30
2018-07-27T01:36:06.573Z,25.30
2018-07-27T01:38:35.716Z,25.30
2018-07-27T01:41:04.696Z,25.20
2018-07-27T01:43:33.960Z,25.20
2018-07-27T01:46:03.001Z,25.10
2018-07-27T01:48:32.256Z,25.10
2018-07-27T01:51:01.377Z,25.10
2018-07-27T01:53:30.311Z,25.00
2018-07-27T01:55:59.424Z,25.00
2018-07-27T01:58:28.464Z,25.00
2018-07-27T02:00:57.507Z,24.90
2018-07-27T02:03:26.498Z,24.90
2018-07-27T02:05:55.592Z,24.80
2018-07-27T02:08:24.577Z,24.80
2018-07-27T02:10:53.536Z,24.80
2018-07-27T02:13:22.552Z,24.70
2018-07-27T02:18:20.186Z,24.60
2018-07-27T02:20:49.194Z,24.60
2018-07-27T02:23:18.204Z,24.60
2018-07-27T02:25:47.214Z,24.50
2018-07-27T02:28:16.198Z,24.50
2018-07-27T02:30:45.240Z,24.50
2018-07-27T02:33:14.239Z,24.40
2018-07-27T02:35:43.266Z,24.40
2018-07-27T02:38:12.310Z,24.40
2018-07-27T02:40:41.697Z,24.40
2018-07-27T02:43:10.684Z,24.40
2018-07-27T02:48:08.360Z,24.30
2018-07-27T02:50:37.361Z,24.30
2018-07-27T02:53:06.442Z,24.30
2018-07-27T02:55:35.461Z,24.30
2018-07-27T02:58:04.597Z,24.40
2018-07-27T03:00:33.610Z,24.40
2018-07-27T03:03:02.590Z,24.40
2018-07-27T03:05:31.645Z,24.40
2018-07-27T03:08:00.742Z,24.40
2018-07-27T03:10:29.754Z,24.40
2018-07-27T03:12:58.734Z,24.40
2018-07-27T03:15:27.742Z,24.50
2018-07-27T03:17:56.804Z,24.50
2018-07-27T03:20:25.797Z,24.40
2018-07-27T03:22:54.801Z,24.40
2018-07-27T03:25:23.810Z,24.40
2018-07-27T03:27:52.857Z,24.40
2018-07-27T03:30:21.858Z,24.40
2018-07-27T03:32:50.837Z,24.40
2018-07-27T03:35:19.837Z,24.40
2018-07-27T03:37:48.893Z,24.30
2018-07-27T03:40:17.917Z,24.30
2018-07-27T03:42:46.993Z,24.30
2018-07-27T03:45:15.973Z,24.30
2018-07-27T03:47:45.146Z,24.30
2018-07-27T03:50:14.098Z,24.30
2018-07-27T03:52:43.185Z,24.30
2018-07-27T03:55:12.261Z,24.30
2018-07-27T03:57:41.335Z,24.20
2018-07-27T04:00:11.951Z,24.30
2018-07-27T04:02:41.256Z,24.20
2018-07-27T04:05:10.326Z,24.30
2018-07-27T04:07:39.355Z,24.30
2018-07-27T04:10:08.417Z,24.30
2018-07-27T04:12:37.445Z,24.30
2018-07-27T04:15:06.669Z,24.30
2018-07-27T04:17:35.735Z,24.40
2018-07-27T04:20:05.069Z,24.40
2018-07-27T04:22:34.106Z,24.40
2018-07-27T04:25:03.085Z,24.50
2018-07-27T04:27:32.177Z,24.50
2018-07-27T04:30:01.265Z,24.50
2018-07-27T04:32:30.257Z,24.60
2018-07-27T04:34:59.294Z,24.70
2018-07-27T04:37:28.354Z,24.70
2018-07-27T04:39:57.379Z,24.80
2018-07-27T04:42:26.420Z,24.80
2018-07-27T04:44:55.440Z,24.80
2018-07-27T04:47:24.537Z,24.90
2018-07-27T04:49:53.515Z,25.00
2018-07-27T04:52:22.556Z,25.00
2018-07-27T04:54:51.535Z,25.00
2018-07-27T04:57:20.539Z,25.10
2018-07-27T04:59:49.638Z,25.10
2018-07-27T05:02:18.626Z,25.20
2018-07-27T05:04:47.787Z,25.20
2018-07-27T05:07:16.786Z,25.20
2018-07-27T05:09:45.782Z,25.30
2018-07-27T05:12:14.891Z,25.30
2018-07-27T05:14:43.886Z,25.40
2018-07-27T05:19:41.566Z,25.50
2018-07-27T05:22:10.589Z,25.50
2018-07-27T05:24:39.630Z,25.50
2018-07-27T05:27:08.597Z,25.60
2018-07-27T05:29:37.613Z,25.60
2018-07-27T05:32:06.797Z,25.60
2018-07-27T05:34:35.797Z,25.60
2018-07-27T05:37:05.067Z,25.60
2018-07-27T05:39:34.044Z,25.60
2018-07-27T05:42:03.039Z,25.60
2018-07-27T05:44:32.013Z,25.70
2018-07-27T05:47:01.035Z,25.70
2018-07-27T05:49:30.061Z,25.70
2018-07-27T05:51:59.048Z,25.70
2018-07-27T05:54:28.003Z,25.80
2018-07-27T05:56:57.050Z,25.80
2018-07-27T05:59:26.154Z,25.90
2018-07-27T06:01:55.129Z,26.00
2018-07-27T06:04:24.134Z,26.00
2018-07-27T06:06:53.108Z,26.00
2018-07-27T06:09:22.166Z,26.10
2018-07-27T06:11:51.159Z,26.20
2018-07-27T06:14:20.124Z,26.30
2018-07-27T06:16:49.116Z,26.30
2018-07-27T06:19:18.106Z,26.40
2018-07-27T06:21:47.081Z,26.40
2018-07-27T06:24:16.084Z,26.40
2018-07-27T06:26:45.084Z,26.50
2018-07-27T06:29:14.127Z,26.50
2018-07-27T06:31:43.121Z,26.50
2018-07-27T06:34:12.269Z,26.50
2018-07-27T06:36:41.285Z,26.60
2018-07-27T06:39:11.580Z,26.60
2018-07-27T06:41:41.134Z,26.70
2018-07-27T06:44:10.124Z,26.70
2018-07-27T06:46:39.110Z,26.70
2018-07-27T06:49:08.156Z,26.80
2018-07-27T06:51:37.158Z,26.80
2018-07-27T06:54:06.213Z,26.90
2018-07-27T06:56:35.194Z,26.90
2018-07-27T06:59:04.216Z,27.00
2018-07-27T07:01:33.225Z,27.10
2018-07-27T07:04:02.378Z,27.10
2018-07-27T07:06:31.452Z,27.20
2018-07-27T07:09:00.726Z,27.20
2018-07-27T07:11:29.989Z,27.30
2018-07-27T07:13:58.938Z,27.40
2018-07-27T07:16:27.906Z,27.40
2018-07-27T07:18:56.892Z,27.50
2018-07-27T07:21:26.414Z,27.60
2018-07-27T07:23:55.414Z,27.70
2018-07-27T07:26:24.730Z,27.90
2018-07-27T07:31:22.638Z,28.10
2018-07-27T07:33:51.825Z,28.30
2018-07-27T07:36:20.863Z,28.40
2018-07-27T07:38:50.231Z,28.60
2018-07-27T07:41:19.210Z,28.80
2018-07-27T07:43:48.190Z,28.90
2018-07-27T07:46:17.229Z,29.10
2018-07-27T07:48:46.410Z,29.30
2018-07-27T07:51:15.412Z,29.50
2018-07-27T07:53:44.381Z,29.60
2018-07-27T07:56:13.386Z,29.80
2018-07-27T07:58:42.371Z,29.90
2018-07-27T08:01:11.385Z,30.00
2018-07-27T08:03:40.367Z,30.20
2018-07-27T08:06:09.363Z,30.30
2018-07-27T08:08:38.333Z,30.40
2018-07-27T08:11:08.426Z,30.50
2018-07-27T08:13:37.429Z,30.50
2018-07-27T08:16:06.436Z,30.60
2018-07-27T08:18:35.476Z,30.70
2018-07-27T08:21:04.549Z,30.80
2018-07-27T08:23:33.494Z,30.90
2018-07-27T08:26:38.749Z,30.90
2018-07-27T08:29:09.315Z,31.00
2018-07-27T08:31:39.106Z,31.10
2018-07-27T08:34:08.119Z,31.10
2018-07-27T08:36:37.137Z,31.30
2018-07-27T08:39:08.377Z,31.30
2018-07-27T08:41:38.369Z,31.40
2018-07-27T08:44:08.375Z,31.40
2018-07-27T08:46:37.677Z,31.50
2018-07-27T08:49:06.677Z,31.60
2018-07-27T08:51:35.690Z,31.60
2018-07-27T08:54:04.775Z,31.70
2018-07-27T08:56:33.717Z,31.70
2018-07-27T08:59:02.721Z,31.70
2018-07-27T09:01:31.831Z,31.80
2018-07-27T09:04:01.007Z,31.80
2018-07-27T09:06:30.051Z,31.90
2018-07-27T09:08:59.047Z,31.90
2018-07-27T09:11:28.079Z,31.90
2018-07-27T09:13:57.440Z,31.90
2018-07-27T09:16:26.410Z,32.00
2018-07-27T09:18:55.462Z,32.00
2018-07-27T09:21:24.521Z,32.10
2018-07-27T09:23:53.496Z,32.10
2018-07-27T09:28:51.296Z,32.20
2018-07-27T09:31:20.310Z,32.20
2018-07-27T09:33:49.345Z,32.20
2018-07-27T09:36:18.360Z,32.20
2018-07-27T09:38:47.417Z,32.30
2018-07-27T09:41:16.443Z,32.30
2018-07-27T09:43:45.460Z,32.30
2018-07-27T09:46:14.438Z,32.30
2018-07-27T09:48:47.648Z,32.30
2018-07-27T09:51:16.705Z,32.40
2018-07-27T09:53:45.736Z,32.40
2018-07-27T09:56:14.771Z,32.50
2018-07-27T09:58:43.824Z,32.50
2018-07-27T10:01:18.342Z,32.50
2018-07-27T10:03:47.378Z,32.60
2018-07-27T10:06:16.372Z,32.70
2018-07-27T10:08:45.536Z,32.80
2018-07-27T10:11:14.556Z,32.80
2018-07-27T10:13:43.812Z,32.80
2018-07-27T10:16:12.767Z,32.80
2018-07-27T10:18:41.734Z,32.90
2018-07-27T10:23:39.595Z,33.00
2018-07-27T10:26:08.645Z,33.00
2018-07-27T10:28:37.657Z,33.00
2018-07-27T10:31:06.741Z,33.10
2018-07-27T10:33:35.737Z,33.10
2018-07-27T10:36:05.043Z,33.20
2018-07-27T10:38:34.565Z,33.20
2018-07-27T10:41:03.561Z,33.30
2018-07-27T10:43:32.585Z,33.30
2018-07-27T10:46:02.270Z,33.30
2018-07-27T10:48:31.271Z,33.30
2018-07-27T10:51:00.281Z,33.40
2018-07-27T10:53:29.287Z,33.40
2018-07-27T10:55:58.321Z,33.30
2018-07-27T10:58:27.417Z,33.40
2018-07-27T11:00:56.630Z,33.50
2018-07-27T11:03:25.637Z,33.50
2018-07-27T11:05:55.357Z,33.60
2018-07-27T11:08:24.318Z,33.60
2018-07-27T11:10:53.438Z,33.70
2018-07-27T11:13:22.513Z,33.70
2018-07-27T11:15:51.481Z,33.80
2018-07-27T11:18:20.515Z,33.90
2018-07-27T11:20:49.587Z,33.90
2018-07-27T11:25:47.261Z,34.00
2018-07-27T11:28:16.936Z,34.10
2018-07-27T11:30:45.932Z,34.20
2018-07-27T11:33:15.021Z,34.30
2018-07-27T11:35:44.013Z,34.40
2018-07-27T11:38:13.093Z,34.50
2018-07-27T11:40:47.713Z,34.50
2018-07-27T11:43:16.736Z,34.60
2018-07-27T11:45:45.718Z,34.60
2018-07-27T11:48:14.751Z,34.60
2018-07-27T11:50:43.881Z,34.70
2018-07-27T11:53:12.909Z,34.70
2018-07-27T11:55:41.924Z,34.80
2018-07-27T11:58:10.928Z,34.90
2018-07-27T12:00:39.973Z,34.90
2018-07-27T12:03:09.085Z,35.00
2018-07-27T12:05:38.108Z,35.00
2018-07-27T12:08:07.212Z,35.10
2018-07-27T12:10:36.288Z,35.20
2018-07-27T12:13:05.394Z,35.20
2018-07-27T12:15:34.360Z,35.30
2018-07-27T12:18:03.366Z,35.30
2018-07-27T12:20:32.981Z,35.40
2018-07-27T12:25:30.798Z,35.50
2018-07-27T12:27:59.811Z,35.60
2018-07-27T12:30:29.005Z,35.60
2018-07-27T12:32:58.067Z,35.70
2018-07-27T12:35:27.030Z,35.70
2018-07-27T12:37:55.993Z,35.70
2018-07-27T12:40:25.016Z,35.80
2018-07-27T12:42:54.057Z,35.90
2018-07-27T12:45:23.025Z,35.90
2018-07-27T12:47:52.054Z,36.00
2018-07-27T12:50:21.241Z,36.00
2018-07-27T12:55:18.955Z,36.20
2018-07-27T12:57:47.989Z,36.20
2018-07-27T13:02:45.640Z,36.40
2018-07-27T13:05:14.779Z,36.50
2018-07-27T13:07:43.738Z,36.60
2018-07-27T13:10:12.720Z,36.70
2018-07-27T13:12:41.764Z,36.80
2018-07-27T13:15:10.738Z,36.80
2018-07-27T13:20:08.666Z,36.90
2018-07-27T13:22:37.732Z,36.90
2018-07-27T13:25:06.793Z,36.90
2018-07-27T13:27:35.790Z,36.90
2018-07-27T13:30:05.698Z,37.00
2018-07-27T13:32:34.757Z,37.00
2018-07-27T13:35:03.749Z,37.00
2018-07-27T13:37:33.856Z,37.00
2018-07-27T13:40:04.198Z,37.00
2018-07-27T13:42:34.504Z,36.90
2018-07-27T13:45:03.525Z,36.90
2018-07-27T13:47:32.505Z,36.90
2018-07-27T13:50:01.604Z,36.90
2018-07-27T13:52:30.691Z,36.80
2018-07-27T13:54:59.693Z,36.90
2018-07-27T13:57:28.812Z,36.90
2018-07-27T13:59:57.809Z,37.00
2018-07-27T14:02:26.844Z,37.10
2018-07-27T14:04:55.914Z,37.20
2018-07-27T14:07:24.917Z,37.30
2018-07-27T14:09:53.921Z,37.30
2018-07-27T14:12:23.128Z,37.20
2018-07-27T14:14:52.165Z,37.20
2018-07-27T14:17:21.158Z,37.30
2018-07-27T14:19:50.159Z,37.50
2018-07-27T14:22:19.257Z,37.60
2018-07-27T14:24:48.306Z,37.50
2018-07-27T14:27:17.341Z,37.50
2018-07-27T14:29:46.349Z,37.50
2018-07-27T14:32:15.446Z,37.50
2018-07-27T14:34:44.476Z,37.50
2018-07-27T14:37:13.509Z,37.50
2018-07-27T14:39:42.484Z,37.60
2018-07-27T14:42:11.537Z,37.60
2018-07-27T14:44:40.524Z,37.70
2018-07-27T14:47:09.494Z,37.70
2018-07-27T14:49:38.493Z,37.60
2018-07-27T14:52:07.561Z,37.60
2018-07-27T14:54:36.554Z,37.50
2018-07-27T14:57:05.551Z,37.50
2018-07-27T14:59:34.534Z,37.50
2018-07-27T15:02:03.612Z,37.30
2018-07-27T15:04:32.708Z,37.20
2018-07-27T15:07:01.693Z,37.20
2018-07-27T15:09:30.792Z,37.10
2018-07-27T15:11:59.748Z,37.10
2018-07-27T15:14:28.828Z,37.10
2018-07-27T15:16:57.900Z,37.10
2018-07-27T15:19:26.861Z,37.20
2018-07-27T15:21:55.892Z,37.20
2018-07-27T15:24:25.135Z,37.20
2018-07-27T15:26:54.109Z,37.30
2018-07-27T15:29:23.174Z,37.50
2018-07-27T15:31:52.193Z,37.50
2018-07-27T15:34:21.238Z,37.50
2018-07-27T15:36:50.203Z,37.60
2018-07-27T15:39:19.346Z,37.50
2018-07-27T15:41:48.320Z,37.50
2018-07-27T15:44:17.352Z,37.20
2018-07-27T15:46:46.422Z,37.10
2018-07-27T15:49:15.414Z,37.10
2018-07-27T15:51:45.240Z,37.00
2018-07-27T15:54:14.324Z,36.90
2018-07-27T15:56:43.500Z,36.90
2018-07-27T15:59:12.630Z,36.80
2018-07-27T16:01:41.602Z,36.70
2018-07-27T16:04:10.666Z,36.70
2018-07-27T16:06:39.711Z,36.50
2018-07-27T16:09:09.633Z,36.40
2018-07-27T16:11:38.702Z,36.40
2018-07-27T16:16:36.373Z,36.30
2018-07-27T16:21:34.138Z,36.10
2018-07-27T16:24:03.160Z,35.80
2018-07-27T16:26:32.183Z,35.70
2018-07-27T16:29:01.202Z,35.60
2018-07-27T16:31:30.263Z,35.50
2018-07-27T16:33:59.376Z,35.30
2018-07-27T16:36:28.504Z,35.20
2018-07-27T16:38:57.756Z,35.10
2018-07-27T16:41:26.845Z,35.00
2018-07-27T16:43:56.663Z,34.90
2018-07-27T16:46:25.741Z,34.80
2018-07-27T16:48:54.693Z,34.70
2018-07-27T16:51:23.691Z,34.60
2018-07-27T16:53:52.722Z,34.50
2018-07-27T16:56:21.931Z,34.50
2018-07-27T16:58:51.031Z,34.40
2018-07-27T17:01:20.202Z,34.40
2018-07-27T17:03:49.233Z,34.40
2018-07-27T17:06:18.339Z,34.30
2018-07-27T17:08:47.615Z,34.30
2018-07-27T17:11:16.713Z,34.30
2018-07-27T17:13:45.788Z,34.20
2018-07-27T17:16:14.786Z,34.20
2018-07-27T17:18:43.780Z,34.10
2018-07-27T17:21:12.791Z,34.10
2018-07-27T17:23:41.909Z,34.10
2018-07-27T17:26:11.237Z,34.10
2018-07-27T17:28:40.261Z,34.10
2018-07-27T17:31:09.271Z,34.10
2018-07-27T17:33:38.250Z,34.10
2018-07-27T17:38:35.933Z,34.10
2018-07-27T17:41:05.057Z,34.10
2018-07-27T17:43:34.459Z,34.20
2018-07-27T17:46:03.621Z,34.30
2018-07-27T17:51:01.427Z,34.40
2018-07-27T17:53:30.813Z,34.50
2018-07-27T17:56:00.038Z,34.60
2018-07-27T17:58:29.119Z,34.60
2018-07-27T18:00:58.170Z,34.70
2018-07-27T18:03:27.193Z,34.70
2018-07-27T18:05:56.237Z,34.70
2018-07-27T18:08:25.675Z,34.60
2018-07-27T18:10:55.979Z,34.60
2018-07-27T18:13:25.031Z,34.60
2018-07-27T18:15:54.225Z,34.50
2018-07-27T18:18:23.289Z,34.50
2018-07-27T18:20:52.419Z,34.40
2018-07-27T18:23:21.419Z,34.40
2018-07-27T18:25:53.941Z,34.30
2018-07-27T18:28:23.237Z,34.20
2018-07-27T18:30:52.236Z,34.10
2018-07-27T18:33:21.308Z,34.10
2018-07-27T18:35:50.395Z,34.00
2018-07-27T18:38:19.400Z,34.00
2018-07-27T18:40:48.388Z,34.00
2018-07-27T18:43:17.451Z,33.90
2018-07-27T18:45:46.514Z,33.80
2018-07-27T18:48:15.540Z,33.80
2018-07-27T18:50:44.582Z,33.70
2018-07-27T18:53:13.624Z,33.70
2018-07-27T18:55:42.724Z,33.70
2018-07-27T18:58:12.025Z,33.70
2018-07-27T19:00:41.096Z,33.70
2018-07-27T19:03:10.166Z,33.60
2018-07-27T19:05:39.274Z,33.50
2018-07-27T19:08:08.410Z,33.40
2018-07-27T19:10:37.439Z,33.30
2018-07-27T19:13:06.498Z,33.20
2018-07-27T19:15:35.798Z,33.10
2018-07-27T19:18:04.898Z,33.00
2018-07-27T19:20:33.991Z,32.90
2018-07-27T19:23:03.596Z,32.80
2018-07-27T19:25:32.590Z,32.70
2018-07-27T19:28:01.890Z,32.60
2018-07-27T19:30:31.004Z,32.50
2018-07-27T19:33:00.088Z,32.40
2018-07-27T19:35:29.134Z,32.30
2018-07-27T19:37:58.144Z,32.20
2018-07-27T19:40:27.109Z,32.20
2018-07-27T19:42:56.066Z,32.10
2018-07-27T19:45:25.151Z,32.00
2018-07-27T19:47:54.211Z,31.90
2018-07-27T19:50:23.304Z,31.80
2018-07-27T19:52:52.334Z,31.80
2018-07-27T19:55:21.434Z,31.70
2018-07-27T19:57:50.552Z,31.60
2018-07-27T20:00:19.733Z,31.60
2018-07-27T20:02:48.825Z,31.50
2018-07-27T20:05:18.001Z,31.50
2018-07-27T20:07:47.115Z,31.40
2018-07-27T20:10:16.206Z,31.30
2018-07-27T20:12:45.276Z,31.30
2018-07-27T20:15:14.385Z,31.30
2018-07-27T20:20:12.077Z,31.20
2018-07-27T20:22:41.089Z,31.10
2018-07-27T20:25:10.173Z,31.10
2018-07-27T20:27:57.657Z,31.00
2018-07-27T20:30:26.997Z,31.00
2018-07-27T20:32:56.164Z,30.90
2018-07-27T20:37:53.977Z,30.70
2018-07-27T20:40:22.998Z,30.70
2018-07-27T20:42:52.041Z,30.70
2018-07-27T20:45:21.163Z,30.60
2018-07-27T20:50:22.825Z,30.60
2018-07-27T20:52:52.225Z,30.50
2018-07-27T20:55:21.557Z,30.50
2018-07-27T20:57:50.677Z,30.50
2018-07-27T21:00:19.731Z,30.50
2018-07-27T21:02:49.078Z,30.40
2018-07-27T21:05:18.239Z,30.40
2018-07-27T21:07:47.334Z,30.40
2018-07-27T21:10:16.329Z,30.40
2018-07-27T21:12:45.881Z,30.40
2018-07-27T21:15:14.927Z,30.30
2018-07-27T21:17:43.945Z,30.30
2018-07-27T21:20:12.963Z,30.10
2018-07-27T21:22:42.275Z,29.80
2018-07-27T21:25:11.755Z,29.40
2018-07-27T21:27:40.814Z,29.30
2018-07-27T21:30:09.864Z,29.20
2018-07-27T21:32:40.196Z,29.00
2018-07-27T21:35:09.248Z,28.90
2018-07-27T21:37:38.441Z,28.80
2018-07-27T21:40:07.512Z,28.70
2018-07-27T21:42:36.542Z,28.60
2018-07-27T21:45:06.186Z,28.50
2018-07-27T21:47:36.270Z,28.40
2018-07-27T21:50:06.050Z,28.30
2018-07-27T21:52:35.027Z,28.10
2018-07-27T21:55:04.173Z,28.00
2018-07-27T21:57:33.994Z,28.00
2018-07-27T22:00:03.000Z,27.70
2018-07-27T22:02:32.052Z,27.70
2018-07-27T22:05:01.135Z,27.50
2018-07-27T22:07:30.305Z,27.60
2018-07-27T22:09:59.346Z,27.40
2018-07-27T22:12:28.604Z,27.40
2018-07-27T22:14:57.896Z,27.30
2018-07-27T22:19:55.734Z,27.30
2018-07-27T22:22:24.804Z,27.20
2018-07-27T22:24:54.414Z,27.00
2018-07-27T22:27:23.444Z,27.00
2018-07-27T22:29:52.487Z,26.90
2018-07-27T22:32:21.451Z,26.80
2018-07-27T22:34:50.423Z,26.80
2018-07-27T22:37:19.461Z,26.70
2018-07-27T22:42:17.254Z,26.50
2018-07-27T22:47:14.951Z,26.50
2018-07-27T22:49:43.957Z,26.40
2018-07-27T22:52:12.929Z,26.30
2018-07-27T22:54:42.149Z,26.30
2018-07-27T22:57:11.361Z,26.30
2018-07-27T22:59:40.372Z,26.20
2018-07-27T23:02:09.411Z,26.20
2018-07-27T23:04:38.450Z,26.20
2018-07-27T23:07:07.463Z,26.00
2018-07-27T23:09:36.475Z,25.90
2018-07-27T23:12:05.695Z,25.90
2018-07-27T23:14:34.761Z,25.80
2018-07-27T23:17:03.745Z,25.80
2018-07-27T23:22:01.360Z,25.70
2018-07-27T23:24:30.305Z,25.60
2018-07-27T23:26:59.365Z,25.60
2018-07-27T23:29:28.386Z,25.70
2018-07-27T23:31:57.411Z,25.50
2018-07-27T23:34:26.432Z,25.50
2018-07-27T23:36:55.412Z,25.50
2018-07-27T23:39:24.519Z,25.40
2018-07-27T23:41:53.492Z,25.30
2018-07-27T23:44:22.505Z,25.20
2018-07-27T23:46:51.524Z,25.30
2018-07-27T23:49:20.565Z,25.30
2018-07-27T23:51:49.517Z,25.20
2018-07-27T23:54:19.105Z,25.20
2018-07-27T23:56:48.102Z,25.20
2018-07-27T23:59:17.372Z,25.10
